sensor_id;sensor_type;location;lat;lon;timestamp;temperature;humidity
62363;DHT22;48396;48.426;1.500;2022-11-12T00:00:30;13.60;97.40
62363;DHT22;48396;48.426;1.500;2022-11-12T00:02:57;13.50;97.30
62363;DHT22;48396;48.426;1.500;2022-11-12T00:05:23;13.60;97.20
62363;DHT22;48396;48.426;1.500;2022-11-12T00:07:49;13.60;97.20
62363;DHT22;48396;48.426;1.500;2022-11-12T00:10:15;13.60;97.40
62363;DHT22;48396;48.426;1.500;2022-11-12T00:12:41;13.50;97.10
62363;DHT22;48396;48.426;1.500;2022-11-12T00:15:08;13.50;97.20
62363;DHT22;48396;48.426;1.500;2022-11-12T00:17:34;13.50;97.30
62363;DHT22;48396;48.426;1.500;2022-11-12T00:20:00;13.40;97.30
62363;DHT22;48396;48.426;1.500;2022-11-12T00:22:26;13.50;97.30
62363;DHT22;48396;48.426;1.500;2022-11-12T00:24:52;13.50;97.20
62363;DHT22;48396;48.426;1.500;2022-11-12T00:27:18;13.50;97.20
62363;DHT22;48396;48.426;1.500;2022-11-12T00:29:43;13.50;97.10
62363;DHT22;48396;48.426;1.500;2022-11-12T00:32:10;13.50;97.10
62363;DHT22;48396;48.426;1.500;2022-11-12T00:34:35;13.50;97.40
62363;DHT22;48396;48.426;1.500;2022-11-12T00:37:01;13.40;97.10
62363;DHT22;48396;48.426;1.500;2022-11-12T00:39:27;13.40;97.10
62363;DHT22;48396;48.426;1.500;2022-11-12T00:41:53;13.30;97.20
62363;DHT22;48396;48.426;1.500;2022-11-12T00:44:19;13.30;97.30
62363;DHT22;48396;48.426;1.500;2022-11-12T00:46:45;13.40;97.20
62363;DHT22;48396;48.426;1.500;2022-11-12T00:49:12;13.40;97.10
62363;DHT22;48396;48.426;1.500;2022-11-12T00:51:38;13.40;97.00
62363;DHT22;48396;48.426;1.500;2022-11-12T00:54:04;13.40;96.90
62363;DHT22;48396;48.426;1.500;2022-11-12T00:56:30;13.40;96.90
62363;DHT22;48396;48.426;1.500;2022-11-12T00:58:57;13.30;96.90
62363;DHT22;48396;48.426;1.500;2022-11-12T01:01:23;13.40;96.90
62363;DHT22;48396;48.426;1.500;2022-11-12T01:03:49;13.30;96.90
62363;DHT22;48396;48.426;1.500;2022-11-12T01:06:19;13.30;96.90
62363;DHT22;48396;48.426;1.500;2022-11-12T01:08:46;13.30;96.90
62363;DHT22;48396;48.426;1.500;2022-11-12T01:11:22;13.30;97.00
62363;DHT22;48396;48.426;1.500;2022-11-12T01:13:57;13.30;97.00
62363;DHT22;48396;48.426;1.500;2022-11-12T01:16:26;13.30;97.00
62363;DHT22;48396;48.426;1.500;2022-11-12T01:19:00;13.30;97.00
62363;DHT22;48396;48.426;1.500;2022-11-12T01:21:29;13.30;97.00
62363;DHT22;48396;48.426;1.500;2022-11-12T01:23:57;13.30;96.90
62363;DHT22;48396;48.426;1.500;2022-11-12T01:26:23;13.30;97.00
62363;DHT22;48396;48.426;1.500;2022-11-12T01:28:49;13.20;96.90
62363;DHT22;48396;48.426;1.500;2022-11-12T01:31:23;13.10;96.90
62363;DHT22;48396;48.426;1.500;2022-11-12T01:33:54;13.10;97.00
62363;DHT22;48396;48.426;1.500;2022-11-12T01:36:20;13.10;97.00
62363;DHT22;48396;48.426;1.500;2022-11-12T01:38:47;13.00;96.90
62363;DHT22;48396;48.426;1.500;2022-11-12T01:41:20;13.00;96.80
62363;DHT22;48396;48.426;1.500;2022-11-12T01:43:46;13.00;96.80
62363;DHT22;48396;48.426;1.500;2022-11-12T01:46:19;13.00;97.10
62363;DHT22;48396;48.426;1.500;2022-11-12T01:48:55;13.00;96.90
62363;DHT22;48396;48.426;1.500;2022-11-12T01:51:24;13.10;96.80
62363;DHT22;48396;48.426;1.500;2022-11-12T01:53:55;13.10;96.70
62363;DHT22;48396;48.426;1.500;2022-11-12T01:56:23;13.10;96.60
62363;DHT22;48396;48.426;1.500;2022-11-12T01:59:03;13.10;96.60
62363;DHT22;48396;48.426;1.500;2022-11-12T02:01:30;13.00;96.70
62363;DHT22;48396;48.426;1.500;2022-11-12T02:03:56;13.00;96.70
62363;DHT22;48396;48.426;1.500;2022-11-12T02:06:22;13.00;96.70
62363;DHT22;48396;48.426;1.500;2022-11-12T02:08:49;13.00;96.70
62363;DHT22;48396;48.426;1.500;2022-11-12T02:11:18;12.90;96.60
62363;DHT22;48396;48.426;1.500;2022-11-12T02:13:46;12.90;96.70
62363;DHT22;48396;48.426;1.500;2022-11-12T02:16:37;12.90;96.60
62363;DHT22;48396;48.426;1.500;2022-11-12T02:19:06;12.90;96.70
62363;DHT22;48396;48.426;1.500;2022-11-12T02:21:33;12.90;96.70
62363;DHT22;48396;48.426;1.500;2022-11-12T02:24:04;13.00;96.60
62363;DHT22;48396;48.426;1.500;2022-11-12T02:26:33;12.90;96.60
62363;DHT22;48396;48.426;1.500;2022-11-12T02:28:59;12.80;97.00
62363;DHT22;48396;48.426;1.500;2022-11-12T02:31:25;12.80;96.80
62363;DHT22;48396;48.426;1.500;2022-11-12T02:33:51;12.80;96.80
62363;DHT22;48396;48.426;1.500;2022-11-12T02:36:17;12.80;96.70
62363;DHT22;48396;48.426;1.500;2022-11-12T02:38:43;12.80;96.70
62363;DHT22;48396;48.426;1.500;2022-11-12T02:41:08;12.70;96.70
62363;DHT22;48396;48.426;1.500;2022-11-12T02:43:34;12.70;96.70
62363;DHT22;48396;48.426;1.500;2022-11-12T02:46:00;12.80;96.60
62363;DHT22;48396;48.426;1.500;2022-11-12T02:48:25;12.70;96.60
62363;DHT22;48396;48.426;1.500;2022-11-12T02:50:51;12.70;96.70
62363;DHT22;48396;48.426;1.500;2022-11-12T02:53:17;12.70;96.70
62363;DHT22;48396;48.426;1.500;2022-11-12T02:55:43;12.60;96.80
62363;DHT22;48396;48.426;1.500;2022-11-12T02:58:09;12.60;97.00
62363;DHT22;48396;48.426;1.500;2022-11-12T03:00:35;12.60;97.00
62363;DHT22;48396;48.426;1.500;2022-11-12T03:03:00;12.70;96.90
62363;DHT22;48396;48.426;1.500;2022-11-12T03:08:48;12.60;97.00
62363;DHT22;48396;48.426;1.500;2022-11-12T03:11:15;12.60;96.90
62363;DHT22;48396;48.426;1.500;2022-11-12T03:13:42;12.60;96.80
62363;DHT22;48396;48.426;1.500;2022-11-12T03:16:08;12.60;96.80
62363;DHT22;48396;48.426;1.500;2022-11-12T03:18:34;12.50;96.80
62363;DHT22;48396;48.426;1.500;2022-11-12T03:21:00;12.60;96.80
62363;DHT22;48396;48.426;1.500;2022-11-12T03:23:26;12.50;96.70
62363;DHT22;48396;48.426;1.500;2022-11-12T03:25:52;12.50;96.70
62363;DHT22;48396;48.426;1.500;2022-11-12T03:28:18;12.50;96.50
62363;DHT22;48396;48.426;1.500;2022-11-12T03:30:44;12.50;96.50
62363;DHT22;48396;48.426;1.500;2022-11-12T03:33:11;12.50;96.60
62363;DHT22;48396;48.426;1.500;2022-11-12T03:35:38;12.50;96.80
62363;DHT22;48396;48.426;1.500;2022-11-12T03:38:04;12.40;96.90
62363;DHT22;48396;48.426;1.500;2022-11-12T03:40:31;12.50;97.00
62363;DHT22;48396;48.426;1.500;2022-11-12T03:42:57;12.40;97.00
62363;DHT22;48396;48.426;1.500;2022-11-12T03:45:25;12.50;97.00
62363;DHT22;48396;48.426;1.500;2022-11-12T03:47:53;12.40;97.10
62363;DHT22;48396;48.426;1.500;2022-11-12T03:50:22;12.40;97.10
62363;DHT22;48396;48.426;1.500;2022-11-12T03:52:50;12.30;97.20
62363;DHT22;48396;48.426;1.500;2022-11-12T03:55:18;12.40;97.20
62363;DHT22;48396;48.426;1.500;2022-11-12T03:57:46;12.40;97.50
62363;DHT22;48396;48.426;1.500;2022-11-12T04:00:12;12.30;97.40
62363;DHT22;48396;48.426;1.500;2022-11-12T04:02:38;12.30;97.50
62363;DHT22;48396;48.426;1.500;2022-11-12T04:05:05;12.30;97.70
62363;DHT22;48396;48.426;1.500;2022-11-12T04:08:05;12.30;97.80
62363;DHT22;48396;48.426;1.500;2022-11-12T04:10:50;12.30;97.80
62363;DHT22;48396;48.426;1.500;2022-11-12T04:13:15;12.30;97.90
62363;DHT22;48396;48.426;1.500;2022-11-12T04:16:17;12.30;97.90
62363;DHT22;48396;48.426;1.500;2022-11-12T04:19:03;12.30;97.80
62363;DHT22;48396;48.426;1.500;2022-11-12T04:21:53;12.30;97.80
62363;DHT22;48396;48.426;1.500;2022-11-12T04:27:08;12.30;97.70
62363;DHT22;48396;48.426;1.500;2022-11-12T04:29:34;12.30;97.60
62363;DHT22;48396;48.426;1.500;2022-11-12T04:32:19;12.30;97.50
62363;DHT22;48396;48.426;1.500;2022-11-12T04:34:45;12.40;97.50
62363;DHT22;48396;48.426;1.500;2022-11-12T04:37:10;12.30;97.40
62363;DHT22;48396;48.426;1.500;2022-11-12T04:39:36;12.30;97.40
62363;DHT22;48396;48.426;1.500;2022-11-12T04:42:02;12.40;97.30
62363;DHT22;48396;48.426;1.500;2022-11-12T04:44:46;12.30;97.30
62363;DHT22;48396;48.426;1.500;2022-11-12T04:47:24;12.30;97.20
62363;DHT22;48396;48.426;1.500;2022-11-12T04:49:51;12.30;97.20
62363;DHT22;48396;48.426;1.500;2022-11-12T04:52:17;12.30;97.20
62363;DHT22;48396;48.426;1.500;2022-11-12T04:54:42;12.30;97.20
62363;DHT22;48396;48.426;1.500;2022-11-12T04:57:08;12.20;97.40
62363;DHT22;48396;48.426;1.500;2022-11-12T04:59:34;12.20;96.90
62363;DHT22;48396;48.426;1.500;2022-11-12T05:02:00;12.20;97.10
62363;DHT22;48396;48.426;1.500;2022-11-12T05:04:25;12.10;97.20
62363;DHT22;48396;48.426;1.500;2022-11-12T05:06:55;12.00;97.20
62363;DHT22;48396;48.426;1.500;2022-11-12T05:09:23;12.00;97.20
62363;DHT22;48396;48.426;1.500;2022-11-12T05:11:50;12.10;97.30
62363;DHT22;48396;48.426;1.500;2022-11-12T05:14:16;12.10;97.30
62363;DHT22;48396;48.426;1.500;2022-11-12T05:16:43;12.00;97.20
62363;DHT22;48396;48.426;1.500;2022-11-12T05:19:09;12.00;97.20
62363;DHT22;48396;48.426;1.500;2022-11-12T05:21:35;12.00;97.30
62363;DHT22;48396;48.426;1.500;2022-11-12T05:24:19;12.00;97.30
62363;DHT22;48396;48.426;1.500;2022-11-12T05:26:45;12.10;97.20
62363;DHT22;48396;48.426;1.500;2022-11-12T05:29:11;12.10;97.20
62363;DHT22;48396;48.426;1.500;2022-11-12T05:31:36;12.10;97.20
62363;DHT22;48396;48.426;1.500;2022-11-12T05:34:02;12.10;97.10
62363;DHT22;48396;48.426;1.500;2022-11-12T05:36:28;12.00;97.00
62363;DHT22;48396;48.426;1.500;2022-11-12T05:38:54;12.00;97.10
62363;DHT22;48396;48.426;1.500;2022-11-12T05:41:19;12.00;97.10
62363;DHT22;48396;48.426;1.500;2022-11-12T05:43:45;12.00;97.20
62363;DHT22;48396;48.426;1.500;2022-11-12T05:46:11;12.00;97.10
62363;DHT22;48396;48.426;1.500;2022-11-12T05:48:36;12.00;97.10
62363;DHT22;48396;48.426;1.500;2022-11-12T05:51:03;12.00;97.20
62363;DHT22;48396;48.426;1.500;2022-11-12T05:53:29;12.00;97.10
62363;DHT22;48396;48.426;1.500;2022-11-12T05:56:03;12.00;97.10
62363;DHT22;48396;48.426;1.500;2022-11-12T05:58:29;12.00;97.20
62363;DHT22;48396;48.426;1.500;2022-11-12T06:00:55;12.10;97.10
62363;DHT22;48396;48.426;1.500;2022-11-12T06:03:21;12.00;97.00
62363;DHT22;48396;48.426;1.500;2022-11-12T06:05:47;12.00;97.10
62363;DHT22;48396;48.426;1.500;2022-11-12T06:08:13;12.00;97.10
62363;DHT22;48396;48.426;1.500;2022-11-12T06:10:39;12.00;97.10
62363;DHT22;48396;48.426;1.500;2022-11-12T06:13:05;12.00;97.20
62363;DHT22;48396;48.426;1.500;2022-11-12T06:15:31;12.00;97.10
62363;DHT22;48396;48.426;1.500;2022-11-12T06:17:57;12.00;97.10
62363;DHT22;48396;48.426;1.500;2022-11-12T06:20:23;12.00;97.10
62363;DHT22;48396;48.426;1.500;2022-11-12T06:22:49;11.90;97.20
62363;DHT22;48396;48.426;1.500;2022-11-12T06:25:16;11.90;97.30
62363;DHT22;48396;48.426;1.500;2022-11-12T06:27:42;11.90;97.30
62363;DHT22;48396;48.426;1.500;2022-11-12T06:30:08;11.90;97.40
62363;DHT22;48396;48.426;1.500;2022-11-12T06:32:34;11.90;97.40
62363;DHT22;48396;48.426;1.500;2022-11-12T06:35:00;11.90;97.30
62363;DHT22;48396;48.426;1.500;2022-11-12T06:37:27;11.80;97.30
62363;DHT22;48396;48.426;1.500;2022-11-12T06:39:52;11.80;97.30
62363;DHT22;48396;48.426;1.500;2022-11-12T06:42:18;11.70;97.40
62363;DHT22;48396;48.426;1.500;2022-11-12T06:44:44;11.70;97.20
62363;DHT22;48396;48.426;1.500;2022-11-12T06:47:10;11.60;97.40
62363;DHT22;48396;48.426;1.500;2022-11-12T06:49:36;11.50;97.50
62363;DHT22;48396;48.426;1.500;2022-11-12T06:52:02;11.50;97.60
62363;DHT22;48396;48.426;1.500;2022-11-12T06:54:27;11.50;97.60
62363;DHT22;48396;48.426;1.500;2022-11-12T06:56:53;11.50;97.40
62363;DHT22;48396;48.426;1.500;2022-11-12T06:59:19;11.60;97.30
62363;DHT22;48396;48.426;1.500;2022-11-12T07:01:44;11.60;97.20
62363;DHT22;48396;48.426;1.500;2022-11-12T07:04:10;11.60;97.20
62363;DHT22;48396;48.426;1.500;2022-11-12T07:06:36;11.70;97.10
62363;DHT22;48396;48.426;1.500;2022-11-12T07:09:03;11.60;97.10
62363;DHT22;48396;48.426;1.500;2022-11-12T07:11:29;11.70;97.00
62363;DHT22;48396;48.426;1.500;2022-11-12T07:13:55;11.70;97.10
62363;DHT22;48396;48.426;1.500;2022-11-12T07:16:21;11.70;97.10
62363;DHT22;48396;48.426;1.500;2022-11-12T07:18:48;11.70;97.00
62363;DHT22;48396;48.426;1.500;2022-11-12T07:21:16;11.70;97.00
62363;DHT22;48396;48.426;1.500;2022-11-12T07:23:42;11.80;96.90
62363;DHT22;48396;48.426;1.500;2022-11-12T07:26:19;11.80;96.90
62363;DHT22;48396;48.426;1.500;2022-11-12T07:28:47;11.80;97.00
62363;DHT22;48396;48.426;1.500;2022-11-12T07:31:13;11.80;97.10
62363;DHT22;48396;48.426;1.500;2022-11-12T07:33:40;11.80;97.20
62363;DHT22;48396;48.426;1.500;2022-11-12T07:36:09;11.70;97.20
62363;DHT22;48396;48.426;1.500;2022-11-12T07:38:36;11.70;97.50
62363;DHT22;48396;48.426;1.500;2022-11-12T07:43:32;11.50;98.10
62363;DHT22;48396;48.426;1.500;2022-11-12T07:46:00;11.40;98.20
62363;DHT22;48396;48.426;1.500;2022-11-12T07:48:28;11.60;98.30
62363;DHT22;48396;48.426;1.500;2022-11-12T07:51:14;11.60;98.20
62363;DHT22;48396;48.426;1.500;2022-11-12T07:53:41;11.70;98.20
62363;DHT22;48396;48.426;1.500;2022-11-12T07:56:10;11.80;98.00
62363;DHT22;48396;48.426;1.500;2022-11-12T07:58:36;11.80;98.10
62363;DHT22;48396;48.426;1.500;2022-11-12T08:03:47;11.80;98.20
62363;DHT22;48396;48.426;1.500;2022-11-12T08:06:13;11.90;98.10
62363;DHT22;48396;48.426;1.500;2022-11-12T08:08:39;11.90;98.10
62363;DHT22;48396;48.426;1.500;2022-11-12T08:11:04;11.90;98.10
62363;DHT22;48396;48.426;1.500;2022-11-12T08:13:30;11.90;98.20
62363;DHT22;48396;48.426;1.500;2022-11-12T08:15:58;11.90;98.20
62363;DHT22;48396;48.426;1.500;2022-11-12T08:18:25;12.00;98.10
62363;DHT22;48396;48.426;1.500;2022-11-12T08:20:51;12.10;98.10
62363;DHT22;48396;48.426;1.500;2022-11-12T08:23:17;12.10;98.20
62363;DHT22;48396;48.426;1.500;2022-11-12T08:25:43;12.00;98.30
62363;DHT22;48396;48.426;1.500;2022-11-12T08:28:09;12.00;98.40
62363;DHT22;48396;48.426;1.500;2022-11-12T08:30:35;12.00;98.50
62363;DHT22;48396;48.426;1.500;2022-11-12T08:33:03;12.00;98.50
62363;DHT22;48396;48.426;1.500;2022-11-12T08:35:30;12.10;98.50
62363;DHT22;48396;48.426;1.500;2022-11-12T08:38:00;12.10;98.40
62363;DHT22;48396;48.426;1.500;2022-11-12T08:40:28;12.10;98.40
62363;DHT22;48396;48.426;1.500;2022-11-12T08:43:02;12.00;98.50
62363;DHT22;48396;48.426;1.500;2022-11-12T08:45:30;12.10;98.60
62363;DHT22;48396;48.426;1.500;2022-11-12T08:48:01;12.10;98.60
62363;DHT22;48396;48.426;1.500;2022-11-12T08:50:27;12.10;98.50
62363;DHT22;48396;48.426;1.500;2022-11-12T08:53:05;12.20;98.50
62363;DHT22;48396;48.426;1.500;2022-11-12T08:55:32;12.20;98.40
62363;DHT22;48396;48.426;1.500;2022-11-12T08:57:58;12.30;98.50
62363;DHT22;48396;48.426;1.500;2022-11-12T09:00:36;12.30;98.50
62363;DHT22;48396;48.426;1.500;2022-11-12T09:03:03;12.20;98.40
62363;DHT22;48396;48.426;1.500;2022-11-12T09:05:30;12.30;98.50
62363;DHT22;48396;48.426;1.500;2022-11-12T09:08:07;12.30;98.50
62363;DHT22;48396;48.426;1.500;2022-11-12T09:10:34;12.40;98.60
62363;DHT22;48396;48.426;1.500;2022-11-12T09:13:00;12.50;98.70
62363;DHT22;48396;48.426;1.500;2022-11-12T09:15:27;12.50;98.70
62363;DHT22;48396;48.426;1.500;2022-11-12T09:17:55;12.50;98.80
62363;DHT22;48396;48.426;1.500;2022-11-12T09:20:21;12.50;98.90
62363;DHT22;48396;48.426;1.500;2022-11-12T09:22:47;12.50;98.90
62363;DHT22;48396;48.426;1.500;2022-11-12T09:25:13;12.30;99.20
62363;DHT22;48396;48.426;1.500;2022-11-12T09:27:39;12.30;99.20
62363;DHT22;48396;48.426;1.500;2022-11-12T09:30:05;12.50;99.10
62363;DHT22;48396;48.426;1.500;2022-11-12T09:32:31;12.50;99.10
62363;DHT22;48396;48.426;1.500;2022-11-12T09:34:57;12.50;99.20
62363;DHT22;48396;48.426;1.500;2022-11-12T09:37:23;12.60;99.10
62363;DHT22;48396;48.426;1.500;2022-11-12T09:39:49;12.70;99.00
62363;DHT22;48396;48.426;1.500;2022-11-12T09:42:17;12.60;99.20
62363;DHT22;48396;48.426;1.500;2022-11-12T09:44:54;12.70;99.20
62363;DHT22;48396;48.426;1.500;2022-11-12T09:47:31;12.70;99.20
62363;DHT22;48396;48.426;1.500;2022-11-12T09:52:40;12.80;99.30
62363;DHT22;48396;48.426;1.500;2022-11-12T09:55:32;12.80;99.30
62363;DHT22;48396;48.426;1.500;2022-11-12T09:58:00;12.90;99.30
62363;DHT22;48396;48.426;1.500;2022-11-12T10:00:26;13.00;99.20
62363;DHT22;48396;48.426;1.500;2022-11-12T10:05:37;13.20;99.20
62363;DHT22;48396;48.426;1.500;2022-11-12T10:14:49;13.40;99.20
62363;DHT22;48396;48.426;1.500;2022-11-12T10:20:12;13.50;99.20
62363;DHT22;48396;48.426;1.500;2022-11-12T10:25:28;13.70;99.20
62363;DHT22;48396;48.426;1.500;2022-11-12T10:27:55;13.70;99.20
62363;DHT22;48396;48.426;1.500;2022-11-12T10:30:23;13.80;99.50
62363;DHT22;48396;48.426;1.500;2022-11-12T10:32:51;13.80;99.70
62363;DHT22;48396;48.426;1.500;2022-11-12T10:35:22;13.90;99.80
62363;DHT22;48396;48.426;1.500;2022-11-12T10:38:01;13.90;99.70
62363;DHT22;48396;48.426;1.500;2022-11-12T10:40:33;14.00;99.80
62363;DHT22;48396;48.426;1.500;2022-11-12T10:43:04;14.00;99.80
62363;DHT22;48396;48.426;1.500;2022-11-12T10:45:31;14.10;99.90
62363;DHT22;48396;48.426;1.500;2022-11-12T10:47:57;14.10;99.90
62363;DHT22;48396;48.426;1.500;2022-11-12T10:50:24;14.20;99.90
62363;DHT22;48396;48.426;1.500;2022-11-12T10:52:54;14.20;99.90
62363;DHT22;48396;48.426;1.500;2022-11-12T10:55:28;14.30;99.90
62363;DHT22;48396;48.426;1.500;2022-11-12T11:00:37;14.50;99.70
62363;DHT22;48396;48.426;1.500;2022-11-12T11:03:28;14.60;99.70
62363;DHT22;48396;48.426;1.500;2022-11-12T11:06:19;14.60;99.80
62363;DHT22;48396;48.426;1.500;2022-11-12T11:08:44;14.70;99.80
62363;DHT22;48396;48.426;1.500;2022-11-12T11:13:50;14.80;99.80
62363;DHT22;48396;48.426;1.500;2022-11-12T11:16:25;14.80;99.80
62363;DHT22;48396;48.426;1.500;2022-11-12T11:19:01;14.80;99.80
62363;DHT22;48396;48.426;1.500;2022-11-12T11:32:36;15.10;99.90
62363;DHT22;48396;48.426;1.500;2022-11-12T11:35:19;15.10;99.90
62363;DHT22;48396;48.426;1.500;2022-11-12T11:55:11;15.50;99.90
62363;DHT22;48396;48.426;1.500;2022-11-12T12:00:20;15.50;99.90
62363;DHT22;48396;48.426;1.500;2022-11-12T12:03:18;15.60;99.90
62363;DHT22;48396;48.426;1.500;2022-11-12T12:05:50;15.70;99.90
62363;DHT22;48396;48.426;1.500;2022-11-12T12:08:28;15.70;99.90
62363;DHT22;48396;48.426;1.500;2022-11-12T12:11:08;15.70;99.90
62363;DHT22;48396;48.426;1.500;2022-11-12T12:13:55;15.80;99.90
62363;DHT22;48396;48.426;1.500;2022-11-12T12:16:39;15.90;99.90
62363;DHT22;48396;48.426;1.500;2022-11-12T12:22:36;16.00;99.90
62363;DHT22;48396;48.426;1.500;2022-11-12T12:25:06;16.10;99.90
62363;DHT22;48396;48.426;1.500;2022-11-12T12:27:37;16.20;99.90
62363;DHT22;48396;48.426;1.500;2022-11-12T12:30:20;16.20;99.90
62363;DHT22;48396;48.426;1.500;2022-11-12T12:32:58;16.30;99.90
62363;DHT22;48396;48.426;1.500;2022-11-12T12:35:43;16.40;99.90
62363;DHT22;48396;48.426;1.500;2022-11-12T12:38:27;16.40;99.90
62363;DHT22;48396;48.426;1.500;2022-11-12T12:44:10;16.50;99.90
62363;DHT22;48396;48.426;1.500;2022-11-12T12:46:45;16.50;99.90
62363;DHT22;48396;48.426;1.500;2022-11-12T12:49:24;16.60;99.90
62363;DHT22;48396;48.426;1.500;2022-11-12T12:51:52;16.70;99.90
62363;DHT22;48396;48.426;1.500;2022-11-12T12:57:02;16.80;99.90
62363;DHT22;48396;48.426;1.500;2022-11-12T12:59:28;16.90;99.90
62363;DHT22;48396;48.426;1.500;2022-11-12T13:02:01;17.00;99.90
62363;DHT22;48396;48.426;1.500;2022-11-12T13:04:53;17.10;99.90
62363;DHT22;48396;48.426;1.500;2022-11-12T13:07:43;17.20;99.90
62363;DHT22;48396;48.426;1.500;2022-11-12T13:13:23;17.20;99.90
62363;DHT22;48396;48.426;1.500;2022-11-12T13:15:54;17.20;99.90
62363;DHT22;48396;48.426;1.500;2022-11-12T13:21:14;17.30;99.90
62363;DHT22;48396;48.426;1.500;2022-11-12T13:35:29;17.60;99.90
62363;DHT22;48396;48.426;1.500;2022-11-12T13:40:38;17.60;99.90
62363;DHT22;48396;48.426;1.500;2022-11-12T13:46:24;17.80;99.90
62363;DHT22;48396;48.426;1.500;2022-11-12T13:48:57;17.80;99.90
62363;DHT22;48396;48.426;1.500;2022-11-12T13:51:34;17.90;99.90
62363;DHT22;48396;48.426;1.500;2022-11-12T13:54:01;18.10;99.90
62363;DHT22;48396;48.426;1.500;2022-11-12T13:56:47;18.10;99.90
62363;DHT22;48396;48.426;1.500;2022-11-12T13:59:18;18.20;99.90
62363;DHT22;48396;48.426;1.500;2022-11-12T14:01:44;18.20;99.80
62363;DHT22;48396;48.426;1.500;2022-11-12T14:04:17;18.30;99.70
62363;DHT22;48396;48.426;1.500;2022-11-12T14:22:55;18.90;99.20
62363;DHT22;48396;48.426;1.500;2022-11-12T14:25:25;19.00;99.10
62363;DHT22;48396;48.426;1.500;2022-11-12T14:27:53;19.10;99.00
62363;DHT22;48396;48.426;1.500;2022-11-12T14:30:21;19.00;99.00
62363;DHT22;48396;48.426;1.500;2022-11-12T14:32:52;19.00;99.10
62363;DHT22;48396;48.426;1.500;2022-11-12T14:35:31;19.10;99.10
62363;DHT22;48396;48.426;1.500;2022-11-12T14:38:20;19.20;99.00
62363;DHT22;48396;48.426;1.500;2022-11-12T14:40:54;19.20;99.00
62363;DHT22;48396;48.426;1.500;2022-11-12T14:43:36;19.30;98.90
62363;DHT22;48396;48.426;1.500;2022-11-12T14:46:05;19.40;98.80
62363;DHT22;48396;48.426;1.500;2022-11-12T14:48:36;19.50;98.60
62363;DHT22;48396;48.426;1.500;2022-11-12T14:51:07;19.40;98.60
62363;DHT22;48396;48.426;1.500;2022-11-12T14:53:47;19.50;98.70
62363;DHT22;48396;48.426;1.500;2022-11-12T14:56:35;19.50;98.60
62363;DHT22;48396;48.426;1.500;2022-11-12T14:59:03;19.60;98.40
62363;DHT22;48396;48.426;1.500;2022-11-12T15:01:34;19.60;98.20
62363;DHT22;48396;48.426;1.500;2022-11-12T15:06:36;19.70;98.20
62363;DHT22;48396;48.426;1.500;2022-11-12T15:09:03;19.70;98.10
62363;DHT22;48396;48.426;1.500;2022-11-12T15:14:12;19.70;98.10
62363;DHT22;48396;48.426;1.500;2022-11-12T15:16:44;19.70;98.00
62363;DHT22;48396;48.426;1.500;2022-11-12T15:19:17;19.60;98.00
62363;DHT22;48396;48.426;1.500;2022-11-12T15:21:57;19.60;98.00
62363;DHT22;48396;48.426;1.500;2022-11-12T15:24:34;19.70;98.00
62363;DHT22;48396;48.426;1.500;2022-11-12T15:27:33;19.60;97.90
62363;DHT22;48396;48.426;1.500;2022-11-12T15:32:41;19.60;97.90
62363;DHT22;48396;48.426;1.500;2022-11-12T15:37:51;19.60;98.00
62363;DHT22;48396;48.426;1.500;2022-11-12T15:40:19;19.60;98.00
62363;DHT22;48396;48.426;1.500;2022-11-12T15:42:46;19.60;97.90
62363;DHT22;48396;48.426;1.500;2022-11-12T15:45:17;19.50;98.00
62363;DHT22;48396;48.426;1.500;2022-11-12T15:47:44;19.50;98.10
62363;DHT22;48396;48.426;1.500;2022-11-12T15:50:19;19.40;98.10
62363;DHT22;48396;48.426;1.500;2022-11-12T15:52:47;19.30;98.10
62363;DHT22;48396;48.426;1.500;2022-11-12T15:55:13;19.20;98.20
62363;DHT22;48396;48.426;1.500;2022-11-12T15:57:48;19.10;98.20
62363;DHT22;48396;48.426;1.500;2022-11-12T16:00:15;19.00;98.10
62363;DHT22;48396;48.426;1.500;2022-11-12T16:02:42;18.80;98.20
62363;DHT22;48396;48.426;1.500;2022-11-12T16:05:16;18.90;98.30
62363;DHT22;48396;48.426;1.500;2022-11-12T16:07:43;18.70;98.40
62363;DHT22;48396;48.426;1.500;2022-11-12T16:10:16;18.60;98.50
62363;DHT22;48396;48.426;1.500;2022-11-12T16:12:43;18.60;98.60
62363;DHT22;48396;48.426;1.500;2022-11-12T16:15:13;18.50;98.80
62363;DHT22;48396;48.426;1.500;2022-11-12T16:17:40;18.40;98.90
62363;DHT22;48396;48.426;1.500;2022-11-12T16:20:35;18.40;98.90
62363;DHT22;48396;48.426;1.500;2022-11-12T16:23:01;18.20;99.10
62363;DHT22;48396;48.426;1.500;2022-11-12T16:25:29;18.20;99.00
62363;DHT22;48396;48.426;1.500;2022-11-12T16:27:58;18.20;99.00
62363;DHT22;48396;48.426;1.500;2022-11-12T16:30:30;18.10;99.10
62363;DHT22;48396;48.426;1.500;2022-11-12T16:32:58;17.90;99.30
62363;DHT22;48396;48.426;1.500;2022-11-12T16:35:27;17.90;99.40
62363;DHT22;48396;48.426;1.500;2022-11-12T16:41:40;17.70;99.40
62363;DHT22;48396;48.426;1.500;2022-11-12T16:44:07;17.60;99.30
62363;DHT22;48396;48.426;1.500;2022-11-12T16:46:36;17.50;99.50
62363;DHT22;48396;48.426;1.500;2022-11-12T16:49:06;17.60;99.30
62363;DHT22;48396;48.426;1.500;2022-11-12T16:51:35;17.60;99.30
62363;DHT22;48396;48.426;1.500;2022-11-12T16:54:01;17.60;99.30
62363;DHT22;48396;48.426;1.500;2022-11-12T16:56:26;17.50;99.30
62363;DHT22;48396;48.426;1.500;2022-11-12T16:58:54;17.50;99.20
62363;DHT22;48396;48.426;1.500;2022-11-12T17:03:49;17.40;99.30
62363;DHT22;48396;48.426;1.500;2022-11-12T17:06:15;17.30;99.30
62363;DHT22;48396;48.426;1.500;2022-11-12T17:08:41;17.30;99.30
62363;DHT22;48396;48.426;1.500;2022-11-12T17:11:08;17.30;99.20
62363;DHT22;48396;48.426;1.500;2022-11-12T17:13:35;17.30;99.30
62363;DHT22;48396;48.426;1.500;2022-11-12T17:16:01;17.30;99.30
62363;DHT22;48396;48.426;1.500;2022-11-12T17:18:28;17.20;99.30
62363;DHT22;48396;48.426;1.500;2022-11-12T17:20:54;17.10;99.30
62363;DHT22;48396;48.426;1.500;2022-11-12T17:23:20;17.10;99.30
62363;DHT22;48396;48.426;1.500;2022-11-12T17:25:46;17.10;99.10
62363;DHT22;48396;48.426;1.500;2022-11-12T17:28:12;17.10;99.20
62363;DHT22;48396;48.426;1.500;2022-11-12T17:30:38;17.00;99.10
62363;DHT22;48396;48.426;1.500;2022-11-12T17:33:03;17.00;99.20
62363;DHT22;48396;48.426;1.500;2022-11-12T17:35:32;16.90;99.00
62363;DHT22;48396;48.426;1.500;2022-11-12T17:37:59;16.80;99.10
62363;DHT22;48396;48.426;1.500;2022-11-12T17:40:25;16.70;99.10
62363;DHT22;48396;48.426;1.500;2022-11-12T17:42:51;16.70;99.20
62363;DHT22;48396;48.426;1.500;2022-11-12T17:45:18;16.70;99.10
62363;DHT22;48396;48.426;1.500;2022-11-12T17:47:44;16.70;99.10
62363;DHT22;48396;48.426;1.500;2022-11-12T17:50:09;16.70;99.10
62363;DHT22;48396;48.426;1.500;2022-11-12T17:52:35;16.60;99.10
62363;DHT22;48396;48.426;1.500;2022-11-12T17:55:01;16.60;99.10